sensor_id;sensor_type;location;lat;lon;timestamp;temperature;humidity
12329;DHT22;6230;52.390;10.256;2022-10-17T00:01:06;18.70;64.90
12329;DHT22;6230;52.390;10.256;2022-10-17T00:03:32;18.70;64.90
12329;DHT22;6230;52.390;10.256;2022-10-17T00:05:58;18.60;64.90
12329;DHT22;6230;52.390;10.256;2022-10-17T00:08:24;18.70;65.00
12329;DHT22;6230;52.390;10.256;2022-10-17T00:10:57;18.70;65.00
12329;DHT22;6230;52.390;10.256;2022-10-17T00:13:24;18.70;65.10
12329;DHT22;6230;52.390;10.256;2022-10-17T00:15:49;18.70;65.00
12329;DHT22;6230;52.390;10.256;2022-10-17T00:18:15;18.70;65.80
12329;DHT22;6230;52.390;10.256;2022-10-17T00:20:41;18.60;65.00
12329;DHT22;6230;52.390;10.256;2022-10-17T00:23:06;18.60;65.10
12329;DHT22;6230;52.390;10.256;2022-10-17T00:25:32;18.50;65.20
12329;DHT22;6230;52.390;10.256;2022-10-17T00:27:57;18.50;65.30
12329;DHT22;6230;52.390;10.256;2022-10-17T00:30:23;18.40;65.50
12329;DHT22;6230;52.390;10.256;2022-10-17T00:32:48;18.30;65.70
12329;DHT22;6230;52.390;10.256;2022-10-17T00:35:14;18.30;66.10
12329;DHT22;6230;52.390;10.256;2022-10-17T00:37:39;18.30;66.30
12329;DHT22;6230;52.390;10.256;2022-10-17T00:40:06;18.20;66.50
12329;DHT22;6230;52.390;10.256;2022-10-17T00:42:31;18.20;66.60
12329;DHT22;6230;52.390;10.256;2022-10-17T00:47:50;18.20;66.90
12329;DHT22;6230;52.390;10.256;2022-10-17T00:50:17;18.20;66.60
12329;DHT22;6230;52.390;10.256;2022-10-17T00:52:44;18.30;66.60
12329;DHT22;6230;52.390;10.256;2022-10-17T00:55:15;18.20;66.60
12329;DHT22;6230;52.390;10.256;2022-10-17T00:57:41;18.30;66.80
12329;DHT22;6230;52.390;10.256;2022-10-17T01:00:09;18.20;66.80
12329;DHT22;6230;52.390;10.256;2022-10-17T01:02:35;18.10;66.90
12329;DHT22;6230;52.390;10.256;2022-10-17T01:05:01;18.10;67.10
12329;DHT22;6230;52.390;10.256;2022-10-17T01:07:28;18.10;67.20
12329;DHT22;6230;52.390;10.256;2022-10-17T01:09:54;18.00;67.50
12329;DHT22;6230;52.390;10.256;2022-10-17T01:21:06;17.90;68.50
12329;DHT22;6230;52.390;10.256;2022-10-17T01:23:53;17.80;68.50
12329;DHT22;6230;52.390;10.256;2022-10-17T01:29:33;17.80;69.20
12329;DHT22;6230;52.390;10.256;2022-10-17T01:34:46;17.70;69.10
12329;DHT22;6230;52.390;10.256;2022-10-17T01:47:45;17.70;69.00
12329;DHT22;6230;52.390;10.256;2022-10-17T01:50:17;17.70;69.40
12329;DHT22;6230;52.390;10.256;2022-10-17T01:52:50;17.60;69.60
12329;DHT22;6230;52.390;10.256;2022-10-17T01:55:19;17.50;70.00
12329;DHT22;6230;52.390;10.256;2022-10-17T01:57:53;17.50;70.10
12329;DHT22;6230;52.390;10.256;2022-10-17T02:00:24;17.50;70.30
12329;DHT22;6230;52.390;10.256;2022-10-17T02:02:57;17.40;70.30
12329;DHT22;6230;52.390;10.256;2022-10-17T02:05:28;17.40;70.30
12329;DHT22;6230;52.390;10.256;2022-10-17T02:07:55;17.40;70.20
12329;DHT22;6230;52.390;10.256;2022-10-17T02:16:07;17.40;70.30
12329;DHT22;6230;52.390;10.256;2022-10-17T02:18:56;17.40;70.80
12329;DHT22;6230;52.390;10.256;2022-10-17T02:21:50;17.40;70.70
12329;DHT22;6230;52.390;10.256;2022-10-17T02:27:11;17.40;70.70
12329;DHT22;6230;52.390;10.256;2022-10-17T02:30:22;17.30;70.90
12329;DHT22;6230;52.390;10.256;2022-10-17T02:32:56;17.30;71.30
12329;DHT22;6230;52.390;10.256;2022-10-17T02:35:24;17.30;71.10
12329;DHT22;6230;52.390;10.256;2022-10-17T02:37:52;17.30;70.90
12329;DHT22;6230;52.390;10.256;2022-10-17T02:40:20;17.30;71.00
12329;DHT22;6230;52.390;10.256;2022-10-17T02:42:47;17.30;71.10
12329;DHT22;6230;52.390;10.256;2022-10-17T02:45:14;17.30;71.10
12329;DHT22;6230;52.390;10.256;2022-10-17T02:47:53;17.30;71.20
12329;DHT22;6230;52.390;10.256;2022-10-17T02:50:30;17.30;72.10
12329;DHT22;6230;52.390;10.256;2022-10-17T02:53:03;17.30;71.20
12329;DHT22;6230;52.390;10.256;2022-10-17T02:55:35;17.30;71.30
12329;DHT22;6230;52.390;10.256;2022-10-17T02:58:06;17.30;71.70
12329;DHT22;6230;52.390;10.256;2022-10-17T03:00:33;17.30;71.70
12329;DHT22;6230;52.390;10.256;2022-10-17T03:02:59;17.30;71.70
12329;DHT22;6230;52.390;10.256;2022-10-17T03:05:28;17.30;71.70
12329;DHT22;6230;52.390;10.256;2022-10-17T03:07:54;17.30;71.80
12329;DHT22;6230;52.390;10.256;2022-10-17T03:10:21;17.20;72.00
12329;DHT22;6230;52.390;10.256;2022-10-17T03:12:47;17.20;72.20
12329;DHT22;6230;52.390;10.256;2022-10-17T03:15:13;17.20;72.10
12329;DHT22;6230;52.390;10.256;2022-10-17T03:17:38;17.20;72.00
12329;DHT22;6230;52.390;10.256;2022-10-17T03:20:05;17.20;72.00
12329;DHT22;6230;52.390;10.256;2022-10-17T03:22:32;17.30;71.90
12329;DHT22;6230;52.390;10.256;2022-10-17T03:24:58;17.30;71.90
12329;DHT22;6230;52.390;10.256;2022-10-17T03:27:24;17.30;71.90
12329;DHT22;6230;52.390;10.256;2022-10-17T03:29:49;17.30;72.00
12329;DHT22;6230;52.390;10.256;2022-10-17T03:32:15;17.30;71.80
12329;DHT22;6230;52.390;10.256;2022-10-17T03:34:40;17.30;71.80
12329;DHT22;6230;52.390;10.256;2022-10-17T03:37:06;17.30;71.80
12329;DHT22;6230;52.390;10.256;2022-10-17T03:39:31;17.30;71.90
12329;DHT22;6230;52.390;10.256;2022-10-17T03:41:57;17.20;71.90
12329;DHT22;6230;52.390;10.256;2022-10-17T03:44:23;17.20;71.90
12329;DHT22;6230;52.390;10.256;2022-10-17T03:46:48;17.20;72.10
12329;DHT22;6230;52.390;10.256;2022-10-17T03:49:14;17.20;72.00
12329;DHT22;6230;52.390;10.256;2022-10-17T03:51:39;17.20;72.10
12329;DHT22;6230;52.390;10.256;2022-10-17T03:54:05;17.20;72.10
12329;DHT22;6230;52.390;10.256;2022-10-17T03:56:30;17.20;72.10
12329;DHT22;6230;52.390;10.256;2022-10-17T03:58:56;17.20;72.20
12329;DHT22;6230;52.390;10.256;2022-10-17T04:01:22;17.10;72.40
12329;DHT22;6230;52.390;10.256;2022-10-17T04:03:49;17.10;72.60
12329;DHT22;6230;52.390;10.256;2022-10-17T04:06:15;17.10;72.90
12329;DHT22;6230;52.390;10.256;2022-10-17T04:08:41;17.10;72.70
12329;DHT22;6230;52.390;10.256;2022-10-17T04:11:09;17.10;72.90
12329;DHT22;6230;52.390;10.256;2022-10-17T04:13:35;17.10;73.00
12329;DHT22;6230;52.390;10.256;2022-10-17T04:16:15;17.00;73.20
12329;DHT22;6230;52.390;10.256;2022-10-17T04:18:42;17.00;73.30
12329;DHT22;6230;52.390;10.256;2022-10-17T04:21:09;17.00;73.20
12329;DHT22;6230;52.390;10.256;2022-10-17T04:23:35;17.10;73.30
12329;DHT22;6230;52.390;10.256;2022-10-17T04:26:01;17.10;73.40
12329;DHT22;6230;52.390;10.256;2022-10-17T04:28:27;17.10;73.40
12329;DHT22;6230;52.390;10.256;2022-10-17T04:33:22;17.10;73.40
12329;DHT22;6230;52.390;10.256;2022-10-17T04:35:58;17.10;73.40
12329;DHT22;6230;52.390;10.256;2022-10-17T04:38:24;17.10;73.40
12329;DHT22;6230;52.390;10.256;2022-10-17T04:40:50;17.10;73.20
12329;DHT22;6230;52.390;10.256;2022-10-17T04:43:16;17.10;73.20
12329;DHT22;6230;52.390;10.256;2022-10-17T04:45:41;17.10;73.30
12329;DHT22;6230;52.390;10.256;2022-10-17T04:48:07;17.10;73.30
12329;DHT22;6230;52.390;10.256;2022-10-17T04:50:32;17.10;73.20
12329;DHT22;6230;52.390;10.256;2022-10-17T04:52:58;17.10;73.30
12329;DHT22;6230;52.390;10.256;2022-10-17T04:55:24;17.10;73.30
12329;DHT22;6230;52.390;10.256;2022-10-17T04:57:49;17.10;73.40
12329;DHT22;6230;52.390;10.256;2022-10-17T05:00:15;17.10;73.40
12329;DHT22;6230;52.390;10.256;2022-10-17T05:02:41;17.10;73.40
12329;DHT22;6230;52.390;10.256;2022-10-17T05:05:06;17.10;73.40
12329;DHT22;6230;52.390;10.256;2022-10-17T05:07:32;17.10;73.40
12329;DHT22;6230;52.390;10.256;2022-10-17T05:09:57;17.10;73.40
12329;DHT22;6230;52.390;10.256;2022-10-17T05:12:23;17.10;73.50
12329;DHT22;6230;52.390;10.256;2022-10-17T05:14:49;17.10;73.60
12329;DHT22;6230;52.390;10.256;2022-10-17T05:17:15;17.10;73.60
12329;DHT22;6230;52.390;10.256;2022-10-17T05:19:41;17.10;73.60
12329;DHT22;6230;52.390;10.256;2022-10-17T05:22:07;17.10;73.60
12329;DHT22;6230;52.390;10.256;2022-10-17T05:24:33;17.10;73.60
12329;DHT22;6230;52.390;10.256;2022-10-17T05:26:58;17.10;73.50
12329;DHT22;6230;52.390;10.256;2022-10-17T05:29:24;17.10;73.40
12329;DHT22;6230;52.390;10.256;2022-10-17T05:31:49;17.10;73.30
12329;DHT22;6230;52.390;10.256;2022-10-17T05:34:15;17.10;73.30
12329;DHT22;6230;52.390;10.256;2022-10-17T05:36:40;17.10;73.30
12329;DHT22;6230;52.390;10.256;2022-10-17T05:39:06;17.00;73.30
12329;DHT22;6230;52.390;10.256;2022-10-17T05:41:33;17.10;73.40
12329;DHT22;6230;52.390;10.256;2022-10-17T05:43:58;17.10;73.40
12329;DHT22;6230;52.390;10.256;2022-10-17T05:46:24;17.00;73.40
12329;DHT22;6230;52.390;10.256;2022-10-17T05:48:50;17.10;73.50
12329;DHT22;6230;52.390;10.256;2022-10-17T05:51:15;17.10;73.50
12329;DHT22;6230;52.390;10.256;2022-10-17T05:53:41;17.10;73.50
12329;DHT22;6230;52.390;10.256;2022-10-17T05:56:09;17.20;73.60
12329;DHT22;6230;52.390;10.256;2022-10-17T05:58:35;17.20;73.50
12329;DHT22;6230;52.390;10.256;2022-10-17T06:01:05;17.20;73.50
12329;DHT22;6230;52.390;10.256;2022-10-17T06:03:31;17.30;73.40
12329;DHT22;6230;52.390;10.256;2022-10-17T06:06:06;17.30;73.40
12329;DHT22;6230;52.390;10.256;2022-10-17T06:08:32;17.30;73.40
12329;DHT22;6230;52.390;10.256;2022-10-17T06:10:58;17.30;73.20
12329;DHT22;6230;52.390;10.256;2022-10-17T06:13:24;17.40;73.20
12329;DHT22;6230;52.390;10.256;2022-10-17T06:15:49;17.40;73.20
12329;DHT22;6230;52.390;10.256;2022-10-17T06:18:15;17.40;73.20
12329;DHT22;6230;52.390;10.256;2022-10-17T06:20:40;17.40;73.20
12329;DHT22;6230;52.390;10.256;2022-10-17T06:23:06;17.40;73.30
12329;DHT22;6230;52.390;10.256;2022-10-17T06:25:32;17.40;73.20
12329;DHT22;6230;52.390;10.256;2022-10-17T06:27:58;17.40;73.30
12329;DHT22;6230;52.390;10.256;2022-10-17T06:30:24;17.40;73.40
12329;DHT22;6230;52.390;10.256;2022-10-17T06:32:51;17.40;73.50
12329;DHT22;6230;52.390;10.256;2022-10-17T06:35:17;17.40;73.80
12329;DHT22;6230;52.390;10.256;2022-10-17T06:37:42;17.40;74.00
12329;DHT22;6230;52.390;10.256;2022-10-17T06:40:09;17.40;74.10
12329;DHT22;6230;52.390;10.256;2022-10-17T06:42:39;17.50;74.20
12329;DHT22;6230;52.390;10.256;2022-10-17T06:45:06;17.50;74.30
12329;DHT22;6230;52.390;10.256;2022-10-17T06:47:32;17.60;74.40
12329;DHT22;6230;52.390;10.256;2022-10-17T06:49:57;17.60;74.50
12329;DHT22;6230;52.390;10.256;2022-10-17T06:52:23;17.60;74.50
12329;DHT22;6230;52.390;10.256;2022-10-17T06:54:49;17.70;74.60
12329;DHT22;6230;52.390;10.256;2022-10-17T06:57:16;17.70;74.70
12329;DHT22;6230;52.390;10.256;2022-10-17T06:59:42;17.80;74.90
12329;DHT22;6230;52.390;10.256;2022-10-17T07:02:09;17.80;74.90
12329;DHT22;6230;52.390;10.256;2022-10-17T07:04:35;17.90;75.00
12329;DHT22;6230;52.390;10.256;2022-10-17T07:07:00;18.00;75.20
12329;DHT22;6230;52.390;10.256;2022-10-17T07:09:28;18.00;75.10
12329;DHT22;6230;52.390;10.256;2022-10-17T07:11:53;18.10;75.10
12329;DHT22;6230;52.390;10.256;2022-10-17T07:14:19;18.20;75.10
12329;DHT22;6230;52.390;10.256;2022-10-17T07:16:44;18.30;75.10
12329;DHT22;6230;52.390;10.256;2022-10-17T07:19:10;18.30;75.00
12329;DHT22;6230;52.390;10.256;2022-10-17T07:21:35;18.40;75.00
12329;DHT22;6230;52.390;10.256;2022-10-17T07:24:01;18.40;74.90
12329;DHT22;6230;52.390;10.256;2022-10-17T07:26:27;18.50;75.00
12329;DHT22;6230;52.390;10.256;2022-10-17T07:28:54;18.50;74.90
12329;DHT22;6230;52.390;10.256;2022-10-17T07:31:21;18.60;74.90
12329;DHT22;6230;52.390;10.256;2022-10-17T07:33:47;18.60;74.80
12329;DHT22;6230;52.390;10.256;2022-10-17T07:36:13;18.70;74.80
12329;DHT22;6230;52.390;10.256;2022-10-17T07:38:40;18.70;74.70
12329;DHT22;6230;52.390;10.256;2022-10-17T07:41:07;18.70;74.80
12329;DHT22;6230;52.390;10.256;2022-10-17T07:43:34;18.80;74.90
12329;DHT22;6230;52.390;10.256;2022-10-17T07:46:01;18.90;74.90
12329;DHT22;6230;52.390;10.256;2022-10-17T07:48:27;18.90;74.90
12329;DHT22;6230;52.390;10.256;2022-10-17T07:50:52;19.00;74.90
12329;DHT22;6230;52.390;10.256;2022-10-17T07:53:18;19.10;74.90
12329;DHT22;6230;52.390;10.256;2022-10-17T07:55:44;19.20;74.90
12329;DHT22;6230;52.390;10.256;2022-10-17T07:58:11;19.30;74.80
12329;DHT22;6230;52.390;10.256;2022-10-17T08:00:37;19.50;75.00
12329;DHT22;6230;52.390;10.256;2022-10-17T08:03:03;19.60;74.60
12329;DHT22;6230;52.390;10.256;2022-10-17T08:05:30;19.70;74.40
12329;DHT22;6230;52.390;10.256;2022-10-17T08:07:56;19.80;74.20
12329;DHT22;6230;52.390;10.256;2022-10-17T08:20:07;20.10;73.40
12329;DHT22;6230;52.390;10.256;2022-10-17T08:22:33;20.20;73.10
12329;DHT22;6230;52.390;10.256;2022-10-17T08:24:59;20.30;73.00
12329;DHT22;6230;52.390;10.256;2022-10-17T08:27:24;20.30;72.70
12329;DHT22;6230;52.390;10.256;2022-10-17T08:29:52;20.40;72.60
12329;DHT22;6230;52.390;10.256;2022-10-17T08:32:19;20.40;72.40
12329;DHT22;6230;52.390;10.256;2022-10-17T08:34:45;20.50;72.20
12329;DHT22;6230;52.390;10.256;2022-10-17T08:37:11;20.50;72.00
12329;DHT22;6230;52.390;10.256;2022-10-17T08:39:39;20.60;72.00
12329;DHT22;6230;52.390;10.256;2022-10-17T08:42:20;20.70;71.80
12329;DHT22;6230;52.390;10.256;2022-10-17T08:45:10;20.80;71.60
12329;DHT22;6230;52.390;10.256;2022-10-17T08:47:42;20.90;71.40
12329;DHT22;6230;52.390;10.256;2022-10-17T08:50:30;20.90;71.20
12329;DHT22;6230;52.390;10.256;2022-10-17T08:55:40;21.10;70.70
12329;DHT22;6230;52.390;10.256;2022-10-17T08:58:19;21.20;70.40
12329;DHT22;6230;52.390;10.256;2022-10-17T09:06:14;21.50;69.80
12329;DHT22;6230;52.390;10.256;2022-10-17T09:14:42;21.80;68.90
12329;DHT22;6230;52.390;10.256;2022-10-17T09:17:27;21.80;68.90
12329;DHT22;6230;52.390;10.256;2022-10-17T09:22:33;21.90;68.30
12329;DHT22;6230;52.390;10.256;2022-10-17T09:25:05;22.00;68.00
12329;DHT22;6230;52.390;10.256;2022-10-17T09:27:40;22.00;67.70
12329;DHT22;6230;52.390;10.256;2022-10-17T09:32:52;22.10;67.20
12329;DHT22;6230;52.390;10.256;2022-10-17T09:35:19;22.10;67.10
12329;DHT22;6230;52.390;10.256;2022-10-17T09:37:45;22.10;67.10
12329;DHT22;6230;52.390;10.256;2022-10-17T09:40:23;22.20;67.00
12329;DHT22;6230;52.390;10.256;2022-10-17T09:42:49;22.30;66.90
12329;DHT22;6230;52.390;10.256;2022-10-17T09:45:18;22.30;66.90
12329;DHT22;6230;52.390;10.256;2022-10-17T09:48:06;22.30;66.80
12329;DHT22;6230;52.390;10.256;2022-10-17T09:50:34;22.30;66.50
12329;DHT22;6230;52.390;10.256;2022-10-17T09:53:11;22.40;66.50
12329;DHT22;6230;52.390;10.256;2022-10-17T09:55:44;22.40;66.30
12329;DHT22;6230;52.390;10.256;2022-10-17T09:58:10;22.40;66.30
12329;DHT22;6230;52.390;10.256;2022-10-17T10:00:42;22.40;66.40
12329;DHT22;6230;52.390;10.256;2022-10-17T10:03:26;22.50;66.20
12329;DHT22;6230;52.390;10.256;2022-10-17T10:08:57;22.80;66.10
12329;DHT22;6230;52.390;10.256;2022-10-17T10:14:18;23.10;65.80
12329;DHT22;6230;52.390;10.256;2022-10-17T10:16:46;23.20;65.20
12329;DHT22;6230;52.390;10.256;2022-10-17T10:19:32;23.40;65.00
12329;DHT22;6230;52.390;10.256;2022-10-17T10:22:04;23.50;64.20
12329;DHT22;6230;52.390;10.256;2022-10-17T10:24:31;23.50;63.90
12329;DHT22;6230;52.390;10.256;2022-10-17T10:26:59;23.50;63.80
12329;DHT22;6230;52.390;10.256;2022-10-17T10:29:34;23.50;63.60
12329;DHT22;6230;52.390;10.256;2022-10-17T10:34:51;23.40;63.30
12329;DHT22;6230;52.390;10.256;2022-10-17T10:37:25;23.40;63.50
12329;DHT22;6230;52.390;10.256;2022-10-17T10:40:00;23.40;63.70
12329;DHT22;6230;52.390;10.256;2022-10-17T10:44:55;23.60;63.50
12329;DHT22;6230;52.390;10.256;2022-10-17T10:47:25;23.80;62.90
12329;DHT22;6230;52.390;10.256;2022-10-17T10:50:39;23.80;62.80
12329;DHT22;6230;52.390;10.256;2022-10-17T10:52:56;23.90;62.60
12329;DHT22;6230;52.390;10.256;2022-10-17T10:55:34;24.00;62.20
12329;DHT22;6230;52.390;10.256;2022-10-17T10:58:03;24.00;62.90
12329;DHT22;6230;52.390;10.256;2022-10-17T11:00:31;24.10;61.90
12329;DHT22;6230;52.390;10.256;2022-10-17T11:03:13;24.10;61.50
12329;DHT22;6230;52.390;10.256;2022-10-17T11:05:43;24.20;61.30
12329;DHT22;6230;52.390;10.256;2022-10-17T11:08:25;24.20;61.20
12329;DHT22;6230;52.390;10.256;2022-10-17T11:14:07;24.20;61.00
12329;DHT22;6230;52.390;10.256;2022-10-17T11:16:40;24.10;61.90
12329;DHT22;6230;52.390;10.256;2022-10-17T11:19:20;24.10;61.00
12329;DHT22;6230;52.390;10.256;2022-10-17T11:22:15;24.10;60.70
12329;DHT22;6230;52.390;10.256;2022-10-17T11:24:51;24.20;60.30
12329;DHT22;6230;52.390;10.256;2022-10-17T11:27:22;24.20;60.40
12329;DHT22;6230;52.390;10.256;2022-10-17T11:29:49;24.20;60.30
12329;DHT22;6230;52.390;10.256;2022-10-17T11:32:57;24.20;60.20
12329;DHT22;6230;52.390;10.256;2022-10-17T11:35:34;24.40;60.00
12329;DHT22;6230;52.390;10.256;2022-10-17T11:38:26;24.50;60.10
12329;DHT22;6230;52.390;10.256;2022-10-17T11:40:58;24.80;59.70
12329;DHT22;6230;52.390;10.256;2022-10-17T11:43:39;25.00;59.50
12329;DHT22;6230;52.390;10.256;2022-10-17T11:46:21;25.20;59.00
12329;DHT22;6230;52.390;10.256;2022-10-17T11:49:09;25.40;58.80
12329;DHT22;6230;52.390;10.256;2022-10-17T11:51:45;25.60;58.30
12329;DHT22;6230;52.390;10.256;2022-10-17T11:54:17;25.70;58.00
12329;DHT22;6230;52.390;10.256;2022-10-17T12:02:12;25.90;57.60
12329;DHT22;6230;52.390;10.256;2022-10-17T12:12:41;26.40;56.90
12329;DHT22;6230;52.390;10.256;2022-10-17T12:17:37;26.80;56.00
12329;DHT22;6230;52.390;10.256;2022-10-17T12:23:03;27.20;54.30
12329;DHT22;6230;52.390;10.256;2022-10-17T12:25:31;27.20;54.50
12329;DHT22;6230;52.390;10.256;2022-10-17T12:30:51;27.20;54.30
12329;DHT22;6230;52.390;10.256;2022-10-17T12:33:21;27.30;54.10
12329;DHT22;6230;52.390;10.256;2022-10-17T12:35:48;27.20;54.00
12329;DHT22;6230;52.390;10.256;2022-10-17T12:38:24;27.10;53.80
12329;DHT22;6230;52.390;10.256;2022-10-17T12:40:52;27.00;53.50
12329;DHT22;6230;52.390;10.256;2022-10-17T12:45:57;26.70;53.20
12329;DHT22;6230;52.390;10.256;2022-10-17T12:51:11;26.40;53.70
12329;DHT22;6230;52.390;10.256;2022-10-17T12:54:07;26.30;53.90
12329;DHT22;6230;52.390;10.256;2022-10-17T12:56:37;26.20;53.90
12329;DHT22;6230;52.390;10.256;2022-10-17T12:59:28;26.10;54.10
12329;DHT22;6230;52.390;10.256;2022-10-17T13:02:03;26.10;54.20
12329;DHT22;6230;52.390;10.256;2022-10-17T13:04:29;26.00;54.30
12329;DHT22;6230;52.390;10.256;2022-10-17T13:06:57;25.90;54.50
12329;DHT22;6230;52.390;10.256;2022-10-17T13:09:29;25.90;54.60
12329;DHT22;6230;52.390;10.256;2022-10-17T13:11:57;25.90;54.60
12329;DHT22;6230;52.390;10.256;2022-10-17T13:14:24;25.80;54.60
12329;DHT22;6230;52.390;10.256;2022-10-17T13:19:25;25.80;54.50
12329;DHT22;6230;52.390;10.256;2022-10-17T13:24:36;25.80;54.60
12329;DHT22;6230;52.390;10.256;2022-10-17T13:27:03;25.80;54.50
12329;DHT22;6230;52.390;10.256;2022-10-17T13:29:29;25.80;54.50
12329;DHT22;6230;52.390;10.256;2022-10-17T13:32:01;25.80;55.10
12329;DHT22;6230;52.390;10.256;2022-10-17T13:34:29;25.80;54.40
12329;DHT22;6230;52.390;10.256;2022-10-17T13:37:00;25.80;54.50
12329;DHT22;6230;52.390;10.256;2022-10-17T13:39:28;25.80;54.60
12329;DHT22;6230;52.390;10.256;2022-10-17T13:41:56;25.70;54.60
12329;DHT22;6230;52.390;10.256;2022-10-17T13:44:25;25.70;54.60
12329;DHT22;6230;52.390;10.256;2022-10-17T13:46:51;25.70;54.60
12329;DHT22;6230;52.390;10.256;2022-10-17T13:52:03;25.70;54.70
12329;DHT22;6230;52.390;10.256;2022-10-17T13:54:38;25.60;54.70
12329;DHT22;6230;52.390;10.256;2022-10-17T13:59:58;25.60;55.00
12329;DHT22;6230;52.390;10.256;2022-10-17T14:02:29;25.60;55.20
12329;DHT22;6230;52.390;10.256;2022-10-17T14:07:34;25.50;55.20
12329;DHT22;6230;52.390;10.256;2022-10-17T14:10:02;25.50;55.30
12329;DHT22;6230;52.390;10.256;2022-10-17T14:12:31;25.50;55.30
12329;DHT22;6230;52.390;10.256;2022-10-17T14:14:58;25.50;55.40
12329;DHT22;6230;52.390;10.256;2022-10-17T14:17:27;25.40;55.40
12329;DHT22;6230;52.390;10.256;2022-10-17T14:20:00;25.40;55.50
12329;DHT22;6230;52.390;10.256;2022-10-17T14:22:33;25.40;55.50
12329;DHT22;6230;52.390;10.256;2022-10-17T14:24:59;25.40;55.70
12329;DHT22;6230;52.390;10.256;2022-10-17T14:30:00;25.30;55.70
12329;DHT22;6230;52.390;10.256;2022-10-17T14:32:30;25.30;55.80
12329;DHT22;6230;52.390;10.256;2022-10-17T14:34:58;25.30;55.90
12329;DHT22;6230;52.390;10.256;2022-10-17T14:39:58;25.30;56.00
12329;DHT22;6230;52.390;10.256;2022-10-17T14:42:25;25.30;56.00
12329;DHT22;6230;52.390;10.256;2022-10-17T14:44:52;25.30;56.10
12329;DHT22;6230;52.390;10.256;2022-10-17T14:47:20;25.30;56.10
12329;DHT22;6230;52.390;10.256;2022-10-17T14:49:49;25.30;56.20
12329;DHT22;6230;52.390;10.256;2022-10-17T14:54:41;25.20;56.20
12329;DHT22;6230;52.390;10.256;2022-10-17T14:59:41;25.20;56.40
12329;DHT22;6230;52.390;10.256;2022-10-17T15:02:08;25.20;56.40
12329;DHT22;6230;52.390;10.256;2022-10-17T15:04:34;25.20;56.50
12329;DHT22;6230;52.390;10.256;2022-10-17T15:06:59;25.20;56.50
12329;DHT22;6230;52.390;10.256;2022-10-17T15:09:25;25.20;56.50
12329;DHT22;6230;52.390;10.256;2022-10-17T15:11:59;25.20;56.50
12329;DHT22;6230;52.390;10.256;2022-10-17T15:14:27;25.20;56.60
12329;DHT22;6230;52.390;10.256;2022-10-17T15:16:53;25.10;56.70
12329;DHT22;6230;52.390;10.256;2022-10-17T15:19:18;25.10;56.70
12329;DHT22;6230;52.390;10.256;2022-10-17T15:21:44;25.10;56.80
12329;DHT22;6230;52.390;10.256;2022-10-17T15:24:09;25.10;56.90
12329;DHT22;6230;52.390;10.256;2022-10-17T15:26:35;25.10;56.90
12329;DHT22;6230;52.390;10.256;2022-10-17T15:29:01;25.10;57.00
12329;DHT22;6230;52.390;10.256;2022-10-17T15:31:28;25.10;57.10
12329;DHT22;6230;52.390;10.256;2022-10-17T15:33:55;25.00;57.10
12329;DHT22;6230;52.390;10.256;2022-10-17T15:36:25;25.00;57.20
12329;DHT22;6230;52.390;10.256;2022-10-17T15:38:53;25.00;57.40
12329;DHT22;6230;52.390;10.256;2022-10-17T15:41:20;24.90;57.40
12329;DHT22;6230;52.390;10.256;2022-10-17T15:43:46;24.90;57.60
12329;DHT22;6230;52.390;10.256;2022-10-17T15:46:17;24.80;57.60
12329;DHT22;6230;52.390;10.256;2022-10-17T15:48:43;24.80;57.70
12329;DHT22;6230;52.390;10.256;2022-10-17T15:51:09;24.80;57.80
12329;DHT22;6230;52.390;10.256;2022-10-17T15:53:35;24.70;57.80
12329;DHT22;6230;52.390;10.256;2022-10-17T15:56:01;24.70;57.80
12329;DHT22;6230;52.390;10.256;2022-10-17T15:58:37;24.70;57.90
12329;DHT22;6230;52.390;10.256;2022-10-17T16:01:05;24.70;57.90
12329;DHT22;6230;52.390;10.256;2022-10-17T16:03:31;24.70;58.00
12329;DHT22;6230;52.390;10.256;2022-10-17T16:05:57;24.70;58.00
12329;DHT22;6230;52.390;10.256;2022-10-17T16:08:23;24.70;58.00
12329;DHT22;6230;52.390;10.256;2022-10-17T16:10:50;24.60;58.10
12329;DHT22;6230;52.390;10.256;2022-10-17T16:13:21;24.60;58.10
12329;DHT22;6230;52.390;10.256;2022-10-17T16:15:47;24.60;58.10
12329;DHT22;6230;52.390;10.256;2022-10-17T16:18:12;24.60;58.10
12329;DHT22;6230;52.390;10.256;2022-10-17T16:20:38;24.60;58.20
12329;DHT22;6230;52.390;10.256;2022-10-17T16:23:04;24.60;58.20
12329;DHT22;6230;52.390;10.256;2022-10-17T16:25:30;24.50;58.20
12329;DHT22;6230;52.390;10.256;2022-10-17T16:27:58;24.50;58.40
12329;DHT22;6230;52.390;10.256;2022-10-17T16:30:27;24.50;58.40
12329;DHT22;6230;52.390;10.256;2022-10-17T16:32:54;24.50;58.40
12329;DHT22;6230;52.390;10.256;2022-10-17T16:35:28;24.50;58.40
12329;DHT22;6230;52.390;10.256;2022-10-17T16:37:54;24.50;58.50
12329;DHT22;6230;52.390;10.256;2022-10-17T16:40:20;24.50;58.50
12329;DHT22;6230;52.390;10.256;2022-10-17T16:42:46;24.40;58.50
12329;DHT22;6230;52.390;10.256;2022-10-17T16:45:19;24.40;58.60
12329;DHT22;6230;52.390;10.256;2022-10-17T16:47:46;24.40;58.70
12329;DHT22;6230;52.390;10.256;2022-10-17T16:50:12;24.40;58.80
12329;DHT22;6230;52.390;10.256;2022-10-17T16:52:38;24.30;58.80
12329;DHT22;6230;52.390;10.256;2022-10-17T16:55:03;24.30;58.80
12329;DHT22;6230;52.390;10.256;2022-10-17T16:57:29;24.30;58.90
12329;DHT22;6230;52.390;10.256;2022-10-17T16:59:55;24.30;58.90
12329;DHT22;6230;52.390;10.256;2022-10-17T17:02:20;24.30;59.00
12329;DHT22;6230;52.390;10.256;2022-10-17T17:04:46;24.30;59.10
12329;DHT22;6230;52.390;10.256;2022-10-17T17:07:11;24.20;59.60
12329;DHT22;6230;52.390;10.256;2022-10-17T17:09:38;24.20;59.10
12329;DHT22;6230;52.390;10.256;2022-10-17T17:12:04;24.20;59.20
12329;DHT22;6230;52.390;10.256;2022-10-17T17:14:30;24.10;59.20
12329;DHT22;6230;52.390;10.256;2022-10-17T17:16:56;24.10;59.20
12329;DHT22;6230;52.390;10.256;2022-10-17T17:19:21;24.10;59.30
12329;DHT22;6230;52.390;10.256;2022-10-17T17:21:47;24.10;59.30
12329;DHT22;6230;52.390;10.256;2022-10-17T17:24:16;24.10;59.50
12329;DHT22;6230;52.390;10.256;2022-10-17T17:26:42;24.00;59.50
12329;DHT22;6230;52.390;10.256;2022-10-17T17:29:08;24.00;59.60
12329;DHT22;6230;52.390;10.256;2022-10-17T17:31:35;24.00;59.70
12329;DHT22;6230;52.390;10.256;2022-10-17T17:34:03;24.00;59.90
12329;DHT22;6230;52.390;10.256;2022-10-17T17:36:33;23.90;60.50
12329;DHT22;6230;52.390;10.256;2022-10-17T17:39:02;23.90;60.30
12329;DHT22;6230;52.390;10.256;2022-10-17T17:41:28;23.90;60.30
12329;DHT22;6230;52.390;10.256;2022-10-17T17:43:54;23.90;60.40
12329;DHT22;6230;52.390;10.256;2022-10-17T17:46:21;23.80;60.50
12329;DHT22;6230;52.390;10.256;2022-10-17T17:48:48;23.80;60.60
12329;DHT22;6230;52.390;10.256;2022-10-17T17:51:16;23.80;60.80
12329;DHT22;6230;52.390;10.256;2022-10-17T17:53:41;23.80;60.80